sensor_id;sensor_type;location;lat;lon;timestamp;P1;durP1;ratioP1;P2;durP2;ratioP2
52574;SDS011;38468;48.114;-1.684;2024-01-30T00:00:32;21.70;;;11.15;;
52574;SDS011;38468;48.114;-1.684;2024-01-30T00:04:51;21.70;;;11.00;;
52574;SDS011;38468;48.114;-1.684;2024-01-30T00:06:52;22.05;;;10.18;;
52574;SDS011;38468;48.114;-1.684;2024-01-30T00:08:53;22.15;;;11.68;;
52574;SDS011;38468;48.114;-1.684;2024-01-30T00:10:53;21.67;;;10.85;;
52574;SDS011;38468;48.114;-1.684;2024-01-30T00:12:54;28.50;;;11.48;;
52574;SDS011;38468;48.114;-1.684;2024-01-30T00:14:55;20.92;;;11.57;;
52574;SDS011;38468;48.114;-1.684;2024-01-30T00:16:55;25.80;;;12.73;;
52574;SDS011;38468;48.114;-1.684;2024-01-30T00:18:56;19.10;;;11.10;;
52574;SDS011;38468;48.114;-1.684;2024-01-30T00:20:57;28.23;;;10.93;;
52574;SDS011;38468;48.114;-1.684;2024-01-30T00:22:57;23.60;;;10.65;;
52574;SDS011;38468;48.114;-1.684;2024-01-30T00:24:58;23.58;;;10.82;;
52574;SDS011;38468;48.114;-1.684;2024-01-30T00:26:58;17.05;;;10.48;;
52574;SDS011;38468;48.114;-1.684;2024-01-30T00:28:59;20.23;;;11.32;;
52574;SDS011;38468;48.114;-1.684;2024-01-30T00:31:00;27.30;;;11.23;;
52574;SDS011;38468;48.114;-1.684;2024-01-30T00:33:00;24.85;;;10.55;;
52574;SDS011;38468;48.114;-1.684;2024-01-30T00:35:01;21.98;;;10.57;;
52574;SDS011;38468;48.114;-1.684;2024-01-30T00:37:01;21.98;;;10.25;;
52574;SDS011;38468;48.114;-1.684;2024-01-30T00:39:02;27.33;;;11.07;;
52574;SDS011;38468;48.114;-1.684;2024-01-30T00:41:07;22.80;;;11.48;;
52574;SDS011;38468;48.114;-1.684;2024-01-30T00:45:13;29.45;;;10.73;;
52574;SDS011;38468;48.114;-1.684;2024-01-30T00:47:16;19.08;;;10.75;;
52574;SDS011;38468;48.114;-1.684;2024-01-30T00:49:17;24.65;;;12.48;;
52574;SDS011;38468;48.114;-1.684;2024-01-30T00:51:18;27.15;;;12.35;;
52574;SDS011;38468;48.114;-1.684;2024-01-30T00:53:18;26.05;;;11.98;;
52574;SDS011;38468;48.114;-1.684;2024-01-30T00:55:19;22.40;;;11.48;;
52574;SDS011;38468;48.114;-1.684;2024-01-30T00:57:20;21.88;;;10.13;;
52574;SDS011;38468;48.114;-1.684;2024-01-30T00:59:20;26.70;;;10.68;;
52574;SDS011;38468;48.114;-1.684;2024-01-30T01:04:18;25.73;;;12.75;;
52574;SDS011;38468;48.114;-1.684;2024-01-30T01:06:18;23.27;;;11.57;;
52574;SDS011;38468;48.114;-1.684;2024-01-30T01:08:19;27.35;;;11.45;;
52574;SDS011;38468;48.114;-1.684;2024-01-30T01:10:20;21.75;;;11.52;;
52574;SDS011;38468;48.114;-1.684;2024-01-30T01:12:21;19.88;;;10.68;;
52574;SDS011;38468;48.114;-1.684;2024-01-30T01:14:21;31.25;;;11.93;;
52574;SDS011;38468;48.114;-1.684;2024-01-30T01:18:41;27.17;;;11.13;;
52574;SDS011;38468;48.114;-1.684;2024-01-30T01:20:41;27.90;;;11.63;;
52574;SDS011;38468;48.114;-1.684;2024-01-30T01:22:42;26.02;;;10.93;;
52574;SDS011;38468;48.114;-1.684;2024-01-30T01:24:43;26.25;;;12.20;;
52574;SDS011;38468;48.114;-1.684;2024-01-30T01:26:44;23.73;;;11.18;;
52574;SDS011;38468;48.114;-1.684;2024-01-30T01:28:44;25.13;;;14.02;;
52574;SDS011;38468;48.114;-1.684;2024-01-30T01:30:45;19.45;;;10.88;;
52574;SDS011;38468;48.114;-1.684;2024-01-30T01:32:46;33.17;;;10.77;;
52574;SDS011;38468;48.114;-1.684;2024-01-30T01:34:54;22.70;;;10.82;;
52574;SDS011;38468;48.114;-1.684;2024-01-30T01:36:55;19.33;;;9.98;;
52574;SDS011;38468;48.114;-1.684;2024-01-30T01:38:55;36.53;;;12.32;;
52574;SDS011;38468;48.114;-1.684;2024-01-30T01:40:56;22.33;;;9.65;;
52574;SDS011;38468;48.114;-1.684;2024-01-30T01:42:57;20.48;;;10.48;;
52574;SDS011;38468;48.114;-1.684;2024-01-30T01:44:57;26.65;;;10.25;;
52574;SDS011;38468;48.114;-1.684;2024-01-30T01:46:58;24.67;;;9.10;;
52574;SDS011;38468;48.114;-1.684;2024-01-30T01:48:59;20.70;;;9.73;;
52574;SDS011;38468;48.114;-1.684;2024-01-30T01:51:02;26.98;;;9.93;;
52574;SDS011;38468;48.114;-1.684;2024-01-30T01:53:03;13.30;;;8.45;;
52574;SDS011;38468;48.114;-1.684;2024-01-30T01:55:05;22.23;;;9.55;;
52574;SDS011;38468;48.114;-1.684;2024-01-30T01:57:06;19.77;;;8.02;;
52574;SDS011;38468;48.114;-1.684;2024-01-30T01:59:07;18.58;;;7.97;;
52574;SDS011;38468;48.114;-1.684;2024-01-30T02:01:08;18.15;;;7.35;;
52574;SDS011;38468;48.114;-1.684;2024-01-30T02:03:10;18.38;;;7.40;;
52574;SDS011;38468;48.114;-1.684;2024-01-30T02:05:12;14.50;;;6.45;;
52574;SDS011;38468;48.114;-1.684;2024-01-30T02:07:13;15.68;;;6.65;;
52574;SDS011;38468;48.114;-1.684;2024-01-30T02:09:13;15.60;;;7.00;;
52574;SDS011;38468;48.114;-1.684;2024-01-30T02:11:14;15.43;;;7.82;;
52574;SDS011;38468;48.114;-1.684;2024-01-30T02:13:16;10.95;;;5.82;;
52574;SDS011;38468;48.114;-1.684;2024-01-30T02:15:17;13.15;;;5.07;;
52574;SDS011;38468;48.114;-1.684;2024-01-30T02:17:18;10.20;;;4.65;;
52574;SDS011;38468;48.114;-1.684;2024-01-30T02:19:18;13.30;;;4.88;;
52574;SDS011;38468;48.114;-1.684;2024-01-30T02:21:19;8.27;;;3.85;;
52574;SDS011;38468;48.114;-1.684;2024-01-30T02:23:20;11.70;;;4.57;;
52574;SDS011;38468;48.114;-1.684;2024-01-30T02:25:30;10.40;;;4.97;;
52574;SDS011;38468;48.114;-1.684;2024-01-30T02:27:36;7.90;;;3.85;;
52574;SDS011;38468;48.114;-1.684;2024-01-30T02:29:36;13.20;;;3.70;;
52574;SDS011;38468;48.114;-1.684;2024-01-30T02:33:57;7.40;;;3.15;;
52574;SDS011;38468;48.114;-1.684;2024-01-30T02:35:58;7.32;;;3.55;;
52574;SDS011;38468;48.114;-1.684;2024-01-30T02:37:59;5.68;;;3.13;;
52574;SDS011;38468;48.114;-1.684;2024-01-30T02:39:59;4.85;;;2.40;;
52574;SDS011;38468;48.114;-1.684;2024-01-30T02:42:00;4.47;;;2.92;;
52574;SDS011;38468;48.114;-1.684;2024-01-30T02:44:01;5.93;;;2.97;;
52574;SDS011;38468;48.114;-1.684;2024-01-30T02:46:02;5.45;;;3.78;;
52574;SDS011;38468;48.114;-1.684;2024-01-30T02:48:03;5.60;;;2.38;;
52574;SDS011;38468;48.114;-1.684;2024-01-30T02:50:04;6.40;;;2.47;;
52574;SDS011;38468;48.114;-1.684;2024-01-30T02:52:05;9.55;;;2.80;;
52574;SDS011;38468;48.114;-1.684;2024-01-30T02:54:05;5.95;;;2.45;;
52574;SDS011;38468;48.114;-1.684;2024-01-30T02:56:06;10.93;;;3.05;;
52574;SDS011;38468;48.114;-1.684;2024-01-30T02:58:09;9.85;;;3.42;;
52574;SDS011;38468;48.114;-1.684;2024-01-30T03:00:10;11.48;;;2.67;;
52574;SDS011;38468;48.114;-1.684;2024-01-30T03:02:16;6.75;;;2.30;;
52574;SDS011;38468;48.114;-1.684;2024-01-30T03:04:17;4.63;;;1.92;;
52574;SDS011;38468;48.114;-1.684;2024-01-30T03:06:17;2.22;;;1.48;;
52574;SDS011;38468;48.114;-1.684;2024-01-30T03:08:20;3.67;;;1.92;;
52574;SDS011;38468;48.114;-1.684;2024-01-30T03:10:21;5.97;;;1.90;;
52574;SDS011;38468;48.114;-1.684;2024-01-30T03:12:21;2.30;;;1.85;;
52574;SDS011;38468;48.114;-1.684;2024-01-30T03:14:22;5.88;;;1.98;;
52574;SDS011;38468;48.114;-1.684;2024-01-30T03:16:23;3.80;;;1.70;;
52574;SDS011;38468;48.114;-1.684;2024-01-30T03:18:24;4.10;;;1.88;;
52574;SDS011;38468;48.114;-1.684;2024-01-30T03:20:24;6.97;;;1.95;;
52574;SDS011;38468;48.114;-1.684;2024-01-30T03:22:25;7.90;;;2.03;;
52574;SDS011;38468;48.114;-1.684;2024-01-30T03:24:25;5.43;;;2.17;;
52574;SDS011;38468;48.114;-1.684;2024-01-30T03:26:26;3.47;;;1.10;;
52574;SDS011;38468;48.114;-1.684;2024-01-30T03:28:27;2.63;;;1.25;;
52574;SDS011;38468;48.114;-1.684;2024-01-30T03:30:27;5.30;;;1.20;;
52574;SDS011;38468;48.114;-1.684;2024-01-30T03:32:28;1.27;;;1.17;;
52574;SDS011;38468;48.114;-1.684;2024-01-30T03:34:29;1.42;;;0.60;;
52574;SDS011;38468;48.114;-1.684;2024-01-30T03:36:29;5.22;;;1.10;;
52574;SDS011;38468;48.114;-1.684;2024-01-30T03:38:33;4.57;;;0.95;;
52574;SDS011;38468;48.114;-1.684;2024-01-30T03:40:34;1.92;;;0.50;;
52574;SDS011;38468;48.114;-1.684;2024-01-30T03:42:37;1.27;;;0.63;;
52574;SDS011;38468;48.114;-1.684;2024-01-30T03:44:37;2.60;;;1.20;;
52574;SDS011;38468;48.114;-1.684;2024-01-30T03:46:38;1.58;;;0.40;;
52574;SDS011;38468;48.114;-1.684;2024-01-30T03:48:39;0.90;;;0.43;;
52574;SDS011;38468;48.114;-1.684;2024-01-30T03:50:40;3.60;;;1.33;;
52574;SDS011;38468;48.114;-1.684;2024-01-30T03:52:40;2.50;;;0.60;;
52574;SDS011;38468;48.114;-1.684;2024-01-30T03:54:41;2.05;;;0.73;;
52574;SDS011;38468;48.114;-1.684;2024-01-30T03:56:41;1.63;;;0.77;;
52574;SDS011;38468;48.114;-1.684;2024-01-30T03:58:42;1.85;;;0.70;;
52574;SDS011;38468;48.114;-1.684;2024-01-30T04:00:43;2.83;;;0.68;;
52574;SDS011;38468;48.114;-1.684;2024-01-30T04:02:44;1.40;;;0.93;;
52574;SDS011;38468;48.114;-1.684;2024-01-30T04:04:45;1.85;;;0.60;;
52574;SDS011;38468;48.114;-1.684;2024-01-30T04:06:46;3.17;;;0.55;;
52574;SDS011;38468;48.114;-1.684;2024-01-30T04:08:47;2.60;;;0.70;;
52574;SDS011;38468;48.114;-1.684;2024-01-30T04:10:47;0.75;;;0.52;;
52574;SDS011;38468;48.114;-1.684;2024-01-30T04:12:49;0.90;;;0.45;;
52574;SDS011;38468;48.114;-1.684;2024-01-30T04:14:49;1.35;;;0.52;;
52574;SDS011;38468;48.114;-1.684;2024-01-30T04:22:34;1.17;;;0.32;;
52574;SDS011;38468;48.114;-1.684;2024-01-30T04:24:35;2.40;;;1.40;;
52574;SDS011;38468;48.114;-1.684;2024-01-30T04:26:35;2.20;;;0.80;;
52574;SDS011;38468;48.114;-1.684;2024-01-30T04:28:36;1.83;;;1.00;;
52574;SDS011;38468;48.114;-1.684;2024-01-30T04:30:37;1.10;;;0.93;;
52574;SDS011;38468;48.114;-1.684;2024-01-30T04:32:38;3.13;;;1.20;;
52574;SDS011;38468;48.114;-1.684;2024-01-30T04:34:39;2.95;;;1.20;;
52574;SDS011;38468;48.114;-1.684;2024-01-30T04:36:39;1.42;;;1.05;;
52574;SDS011;38468;48.114;-1.684;2024-01-30T04:38:45;8.48;;;1.10;;
52574;SDS011;38468;48.114;-1.684;2024-01-30T04:40:47;1.70;;;0.77;;
52574;SDS011;38468;48.114;-1.684;2024-01-30T04:42:47;1.23;;;0.85;;
52574;SDS011;38468;48.114;-1.684;2024-01-30T04:44:48;3.10;;;1.00;;
52574;SDS011;38468;48.114;-1.684;2024-01-30T04:46:49;1.70;;;0.82;;
52574;SDS011;38468;48.114;-1.684;2024-01-30T04:48:49;3.28;;;0.77;;
52574;SDS011;38468;48.114;-1.684;2024-01-30T04:50:59;1.05;;;0.68;;
52574;SDS011;38468;48.114;-1.684;2024-01-30T04:53:02;3.08;;;0.73;;
52574;SDS011;38468;48.114;-1.684;2024-01-30T04:55:03;0.77;;;0.77;;
52574;SDS011;38468;48.114;-1.684;2024-01-30T04:57:04;1.13;;;0.65;;
52574;SDS011;38468;48.114;-1.684;2024-01-30T04:59:10;2.75;;;0.60;;
52574;SDS011;38468;48.114;-1.684;2024-01-30T05:03:15;1.15;;;0.60;;
52574;SDS011;38468;48.114;-1.684;2024-01-30T05:05:16;0.40;;;0.40;;
52574;SDS011;38468;48.114;-1.684;2024-01-30T05:07:17;3.95;;;0.85;;
52574;SDS011;38468;48.114;-1.684;2024-01-30T05:09:18;1.63;;;0.60;;
52574;SDS011;38468;48.114;-1.684;2024-01-30T05:11:19;1.13;;;0.70;;
52574;SDS011;38468;48.114;-1.684;2024-01-30T05:13:19;2.58;;;0.65;;
52574;SDS011;38468;48.114;-1.684;2024-01-30T05:15:20;1.00;;;0.85;;
52574;SDS011;38468;48.114;-1.684;2024-01-30T05:17:21;1.08;;;0.50;;
52574;SDS011;38468;48.114;-1.684;2024-01-30T05:19:21;0.68;;;0.50;;
52574;SDS011;38468;48.114;-1.684;2024-01-30T05:21:23;1.33;;;0.70;;
52574;SDS011;38468;48.114;-1.684;2024-01-30T05:23:23;1.58;;;1.23;;
52574;SDS011;38468;48.114;-1.684;2024-01-30T05:25:24;2.17;;;0.70;;
52574;SDS011;38468;48.114;-1.684;2024-01-30T05:27:25;2.80;;;0.60;;
52574;SDS011;38468;48.114;-1.684;2024-01-30T05:29:26;0.65;;;0.60;;
52574;SDS011;38468;48.114;-1.684;2024-01-30T05:31:27;0.47;;;0.47;;
52574;SDS011;38468;48.114;-1.684;2024-01-30T05:33:28;0.57;;;0.30;;
52574;SDS011;38468;48.114;-1.684;2024-01-30T05:35:28;0.68;;;0.65;;
52574;SDS011;38468;48.114;-1.684;2024-01-30T05:37:29;0.60;;;0.50;;
52574;SDS011;38468;48.114;-1.684;2024-01-30T05:39:30;0.70;;;0.55;;
52574;SDS011;38468;48.114;-1.684;2024-01-30T05:41:32;1.40;;;0.52;;
52574;SDS011;38468;48.114;-1.684;2024-01-30T05:43:33;1.98;;;1.75;;
52574;SDS011;38468;48.114;-1.684;2024-01-30T05:45:34;2.55;;;0.90;;
52574;SDS011;38468;48.114;-1.684;2024-01-30T05:47:38;0.70;;;0.70;;
52574;SDS011;38468;48.114;-1.684;2024-01-30T05:49:40;0.40;;;0.40;;
52574;SDS011;38468;48.114;-1.684;2024-01-30T05:51:40;0.75;;;0.75;;
52574;SDS011;38468;48.114;-1.684;2024-01-30T05:53:41;0.95;;;0.68;;
52574;SDS011;38468;48.114;-1.684;2024-01-30T05:55:41;1.80;;;0.60;;
52574;SDS011;38468;48.114;-1.684;2024-01-30T05:57:42;2.00;;;0.77;;
52574;SDS011;38468;48.114;-1.684;2024-01-30T05:59:43;0.75;;;0.60;;
52574;SDS011;38468;48.114;-1.684;2024-01-30T06:01:45;3.38;;;0.60;;
52574;SDS011;38468;48.114;-1.684;2024-01-30T06:03:48;1.10;;;0.90;;
52574;SDS011;38468;48.114;-1.684;2024-01-30T06:05:49;1.38;;;0.60;;
52574;SDS011;38468;48.114;-1.684;2024-01-30T06:07:50;1.38;;;0.50;;
52574;SDS011;38468;48.114;-1.684;2024-01-30T06:09:50;1.50;;;0.77;;
52574;SDS011;38468;48.114;-1.684;2024-01-30T06:11:51;2.47;;;0.52;;
52574;SDS011;38468;48.114;-1.684;2024-01-30T06:13:51;1.50;;;0.50;;
52574;SDS011;38468;48.114;-1.684;2024-01-30T06:15:52;0.45;;;0.38;;
52574;SDS011;38468;48.114;-1.684;2024-01-30T06:17:53;1.20;;;0.73;;
52574;SDS011;38468;48.114;-1.684;2024-01-30T06:19:53;0.75;;;0.30;;
52574;SDS011;38468;48.114;-1.684;2024-01-30T06:21:54;2.33;;;0.60;;
52574;SDS011;38468;48.114;-1.684;2024-01-30T06:23:55;0.70;;;0.50;;
52574;SDS011;38468;48.114;-1.684;2024-01-30T06:25:55;0.65;;;0.60;;
52574;SDS011;38468;48.114;-1.684;2024-01-30T06:27:56;3.13;;;0.70;;
52574;SDS011;38468;48.114;-1.684;2024-01-30T06:29:57;2.40;;;0.70;;
52574;SDS011;38468;48.114;-1.684;2024-01-30T06:31:57;3.63;;;0.50;;
52574;SDS011;38468;48.114;-1.684;2024-01-30T06:33:58;0.57;;;0.57;;
52574;SDS011;38468;48.114;-1.684;2024-01-30T06:36:00;2.38;;;0.80;;
52574;SDS011;38468;48.114;-1.684;2024-01-30T06:38:00;1.02;;;0.73;;
52574;SDS011;38468;48.114;-1.684;2024-01-30T06:40:01;1.73;;;1.00;;
52574;SDS011;38468;48.114;-1.684;2024-01-30T06:42:02;2.17;;;0.90;;
52574;SDS011;38468;48.114;-1.684;2024-01-30T06:44:03;13.00;;;1.58;;
52574;SDS011;38468;48.114;-1.684;2024-01-30T06:46:08;0.70;;;0.68;;
52574;SDS011;38468;48.114;-1.684;2024-01-30T06:48:08;3.55;;;0.80;;
52574;SDS011;38468;48.114;-1.684;2024-01-30T06:50:09;3.40;;;1.27;;
52574;SDS011;38468;48.114;-1.684;2024-01-30T06:52:10;3.45;;;1.02;;
52574;SDS011;38468;48.114;-1.684;2024-01-30T06:54:11;1.48;;;0.75;;
52574;SDS011;38468;48.114;-1.684;2024-01-30T06:56:11;3.90;;;1.48;;
52574;SDS011;38468;48.114;-1.684;2024-01-30T06:58:12;1.00;;;0.88;;
52574;SDS011;38468;48.114;-1.684;2024-01-30T07:00:13;0.85;;;0.85;;
52574;SDS011;38468;48.114;-1.684;2024-01-30T07:02:21;1.85;;;1.00;;
52574;SDS011;38468;48.114;-1.684;2024-01-30T07:04:22;1.10;;;0.90;;
52574;SDS011;38468;48.114;-1.684;2024-01-30T07:06:24;2.47;;;2.00;;
52574;SDS011;38468;48.114;-1.684;2024-01-30T07:08:24;15.13;;;11.98;;
52574;SDS011;38468;48.114;-1.684;2024-01-30T07:10:25;8.25;;;5.82;;
52574;SDS011;38468;48.114;-1.684;2024-01-30T07:12:26;4.20;;;3.80;;
52574;SDS011;38468;48.114;-1.684;2024-01-30T07:14:26;1.67;;;1.58;;
52574;SDS011;38468;48.114;-1.684;2024-01-30T07:16:27;1.23;;;1.05;;
52574;SDS011;38468;48.114;-1.684;2024-01-30T07:18:27;1.33;;;1.05;;
52574;SDS011;38468;48.114;-1.684;2024-01-30T07:20:28;4.63;;;1.48;;
52574;SDS011;38468;48.114;-1.684;2024-01-30T07:22:30;1.00;;;0.95;;
52574;SDS011;38468;48.114;-1.684;2024-01-30T07:24:31;0.85;;;0.85;;
52574;SDS011;38468;48.114;-1.684;2024-01-30T07:26:31;2.72;;;0.90;;
52574;SDS011;38468;48.114;-1.684;2024-01-30T07:28:32;2.25;;;0.80;;
52574;SDS011;38468;48.114;-1.684;2024-01-30T07:30:33;4.07;;;1.02;;
52574;SDS011;38468;48.114;-1.684;2024-01-30T07:32:39;0.47;;;0.47;;
52574;SDS011;38468;48.114;-1.684;2024-01-30T07:34:40;1.13;;;1.00;;
52574;SDS011;38468;48.114;-1.684;2024-01-30T07:36:41;0.90;;;0.90;;
52574;SDS011;38468;48.114;-1.684;2024-01-30T07:38:42;0.80;;;0.80;;
52574;SDS011;38468;48.114;-1.684;2024-01-30T07:40:42;1.42;;;0.57;;
52574;SDS011;38468;48.114;-1.684;2024-01-30T07:42:43;2.25;;;0.90;;
52574;SDS011;38468;48.114;-1.684;2024-01-30T07:44:45;3.33;;;1.40;;
52574;SDS011;38468;48.114;-1.684;2024-01-30T07:46:51;1.38;;;0.75;;
52574;SDS011;38468;48.114;-1.684;2024-01-30T07:48:52;14.80;;;1.35;;
52574;SDS011;38468;48.114;-1.684;2024-01-30T07:50:53;2.72;;;1.38;;
52574;SDS011;38468;48.114;-1.684;2024-01-30T07:52:55;2.65;;;1.08;;
52574;SDS011;38468;48.114;-1.684;2024-01-30T07:57:51;5.95;;;1.75;;
52574;SDS011;38468;48.114;-1.684;2024-01-30T07:59:52;2.08;;;1.30;;
52574;SDS011;38468;48.114;-1.684;2024-01-30T08:01:53;3.95;;;1.45;;
52574;SDS011;38468;48.114;-1.684;2024-01-30T08:03:59;3.42;;;1.45;;
52574;SDS011;38468;48.114;-1.684;2024-01-30T08:06:00;4.38;;;1.00;;
52574;SDS011;38468;48.114;-1.684;2024-01-30T08:08:01;3.85;;;1.33;;
52574;SDS011;38468;48.114;-1.684;2024-01-30T08:10:01;3.05;;;1.42;;
52574;SDS011;38468;48.114;-1.684;2024-01-30T08:12:02;2.15;;;1.60;;
52574;SDS011;38468;48.114;-1.684;2024-01-30T08:14:03;1.95;;;1.85;;
52574;SDS011;38468;48.114;-1.684;2024-01-30T08:16:03;2.47;;;1.63;;
52574;SDS011;38468;48.114;-1.684;2024-01-30T08:18:07;3.92;;;2.08;;
52574;SDS011;38468;48.114;-1.684;2024-01-30T08:20:08;6.75;;;1.92;;
52574;SDS011;38468;48.114;-1.684;2024-01-30T08:22:12;5.85;;;1.60;;
52574;SDS011;38468;48.114;-1.684;2024-01-30T08:24:13;7.78;;;2.00;;
52574;SDS011;38468;48.114;-1.684;2024-01-30T08:26:13;4.32;;;2.03;;
52574;SDS011;38468;48.114;-1.684;2024-01-30T08:28:14;2.10;;;1.38;;
52574;SDS011;38468;48.114;-1.684;2024-01-30T08:30:15;5.63;;;1.75;;
52574;SDS011;38468;48.114;-1.684;2024-01-30T08:32:18;7.22;;;2.08;;
52574;SDS011;38468;48.114;-1.684;2024-01-30T08:34:19;3.80;;;1.55;;
52574;SDS011;38468;48.114;-1.684;2024-01-30T08:36:19;2.58;;;2.08;;
52574;SDS011;38468;48.114;-1.684;2024-01-30T08:38:21;1.95;;;1.85;;
52574;SDS011;38468;48.114;-1.684;2024-01-30T08:40:22;3.67;;;1.57;;
52574;SDS011;38468;48.114;-1.684;2024-01-30T08:42:22;1.63;;;1.45;;
52574;SDS011;38468;48.114;-1.684;2024-01-30T08:44:25;4.13;;;2.13;;
52574;SDS011;38468;48.114;-1.684;2024-01-30T08:46:27;1.92;;;1.52;;
52574;SDS011;38468;48.114;-1.684;2024-01-30T08:48:33;3.50;;;1.60;;
52574;SDS011;38468;48.114;-1.684;2024-01-30T08:50:33;3.00;;;1.95;;
52574;SDS011;38468;48.114;-1.684;2024-01-30T08:52:36;2.28;;;1.50;;
52574;SDS011;38468;48.114;-1.684;2024-01-30T08:54:36;2.42;;;1.88;;
52574;SDS011;38468;48.114;-1.684;2024-01-30T08:56:37;1.60;;;1.50;;
52574;SDS011;38468;48.114;-1.684;2024-01-30T08:58:38;2.08;;;1.50;;
52574;SDS011;38468;48.114;-1.684;2024-01-30T09:00:38;4.20;;;1.42;;
52574;SDS011;38468;48.114;-1.684;2024-01-30T09:02:39;1.70;;;1.60;;
52574;SDS011;38468;48.114;-1.684;2024-01-30T09:04:41;3.25;;;1.30;;
52574;SDS011;38468;48.114;-1.684;2024-01-30T09:06:42;2.63;;;2.17;;
52574;SDS011;38468;48.114;-1.684;2024-01-30T09:08:43;2.15;;;1.45;;
52574;SDS011;38468;48.114;-1.684;2024-01-30T09:10:44;4.93;;;1.70;;
52574;SDS011;38468;48.114;-1.684;2024-01-30T09:12:44;2.40;;;1.48;;
52574;SDS011;38468;48.114;-1.684;2024-01-30T09:14:45;1.63;;;1.35;;
52574;SDS011;38468;48.114;-1.684;2024-01-30T09:16:45;2.78;;;1.45;;
52574;SDS011;38468;48.114;-1.684;2024-01-30T09:18:48;3.03;;;1.73;;
52574;SDS011;38468;48.114;-1.684;2024-01-30T09:20:49;2.53;;;1.40;;
52574;SDS011;38468;48.114;-1.684;2024-01-30T09:22:50;2.67;;;1.80;;
52574;SDS011;38468;48.114;-1.684;2024-01-30T09:24:50;2.70;;;1.60;;
52574;SDS011;38468;48.114;-1.684;2024-01-30T09:26:51;4.30;;;1.65;;
52574;SDS011;38468;48.114;-1.684;2024-01-30T09:28:52;1.67;;;1.13;;
52574;SDS011;38468;48.114;-1.684;2024-01-30T09:30:52;1.25;;;1.00;;
52574;SDS011;38468;48.114;-1.684;2024-01-30T09:32:53;2.13;;;1.20;;
52574;SDS011;38468;48.114;-1.684;2024-01-30T09:34:54;1.40;;;0.90;;
52574;SDS011;38468;48.114;-1.684;2024-01-30T09:36:54;2.95;;;1.17;;
52574;SDS011;38468;48.114;-1.684;2024-01-30T09:38:55;1.35;;;1.02;;
52574;SDS011;38468;48.114;-1.684;2024-01-30T09:40:55;3.50;;;0.93;;
52574;SDS011;38468;48.114;-1.684;2024-01-30T09:42:59;1.85;;;0.95;;
52574;SDS011;38468;48.114;-1.684;2024-01-30T09:45:00;3.03;;;1.42;;
52574;SDS011;38468;48.114;-1.684;2024-01-30T09:47:03;3.80;;;1.48;;
52574;SDS011;38468;48.114;-1.684;2024-01-30T09:49:06;1.13;;;1.13;;
52574;SDS011;38468;48.114;-1.684;2024-01-30T09:51:09;2.38;;;1.00;;
52574;SDS011;38468;48.114;-1.684;2024-01-30T09:55:13;3.25;;;1.10;;
52574;SDS011;38468;48.114;-1.684;2024-01-30T09:57:14;1.13;;;1.13;;
52574;SDS011;38468;48.114;-1.684;2024-01-30T09:59:15;1.80;;;1.45;;
52574;SDS011;38468;48.114;-1.684;2024-01-30T10:01:16;4.47;;;1.10;;
52574;SDS011;38468;48.114;-1.684;2024-01-30T10:03:19;2.72;;;1.08;;
52574;SDS011;38468;48.114;-1.684;2024-01-30T10:05:19;1.25;;;1.10;;
52574;SDS011;38468;48.114;-1.684;2024-01-30T10:07:26;1.02;;;0.90;;
52574;SDS011;38468;48.114;-1.684;2024-01-30T10:09:27;2.30;;;0.93;;
52574;SDS011;38468;48.114;-1.684;2024-01-30T10:11:27;2.25;;;0.90;;
52574;SDS011;38468;48.114;-1.684;2024-01-30T10:13:28;2.92;;;1.13;;
52574;SDS011;38468;48.114;-1.684;2024-01-30T10:15:29;0.98;;;0.88;;
52574;SDS011;38468;48.114;-1.684;2024-01-30T10:17:30;2.20;;;1.08;;
52574;SDS011;38468;48.114;-1.684;2024-01-30T10:19:31;2.83;;;0.63;;
52574;SDS011;38468;48.114;-1.684;2024-01-30T10:21:31;2.38;;;0.98;;
52574;SDS011;38468;48.114;-1.684;2024-01-30T10:23:32;0.95;;;0.90;;
52574;SDS011;38468;48.114;-1.684;2024-01-30T10:25:33;0.77;;;0.77;;
52574;SDS011;38468;48.114;-1.684;2024-01-30T10:27:34;1.98;;;0.90;;
52574;SDS011;38468;48.114;-1.684;2024-01-30T10:29:34;1.33;;;0.95;;
52574;SDS011;38468;48.114;-1.684;2024-01-30T10:31:37;0.68;;;0.55;;
52574;SDS011;38468;48.114;-1.684;2024-01-30T10:33:38;1.80;;;0.95;;
52574;SDS011;38468;48.114;-1.684;2024-01-30T10:35:38;1.17;;;0.60;;
52574;SDS011;38468;48.114;-1.684;2024-01-30T10:37:39;0.73;;;0.63;;
52574;SDS011;38468;48.114;-1.684;2024-01-30T10:39:43;0.70;;;0.70;;
52574;SDS011;38468;48.114;-1.684;2024-01-30T10:41:45;1.38;;;1.00;;
52574;SDS011;38468;48.114;-1.684;2024-01-30T10:43:50;4.10;;;1.48;;
52574;SDS011;38468;48.114;-1.684;2024-01-30T10:46:02;2.60;;;1.30;;
52574;SDS011;38468;48.114;-1.684;2024-01-30T10:48:11;2.95;;;1.10;;
52574;SDS011;38468;48.114;-1.684;2024-01-30T10:52:14;1.33;;;0.90;;
52574;SDS011;38468;48.114;-1.684;2024-01-30T10:54:17;1.33;;;0.93;;
52574;SDS011;38468;48.114;-1.684;2024-01-30T10:56:18;0.70;;;0.70;;
52574;SDS011;38468;48.114;-1.684;2024-01-30T10:58:23;1.27;;;0.95;;
52574;SDS011;38468;48.114;-1.684;2024-01-30T11:00:23;1.75;;;0.80;;
52574;SDS011;38468;48.114;-1.684;2024-01-30T11:02:26;3.45;;;1.00;;
52574;SDS011;38468;48.114;-1.684;2024-01-30T11:04:27;0.97;;;0.93;;
52574;SDS011;38468;48.114;-1.684;2024-01-30T11:06:41;1.85;;;0.70;;
52574;SDS011;38468;48.114;-1.684;2024-01-30T11:08:42;1.17;;;0.77;;
52574;SDS011;38468;48.114;-1.684;2024-01-30T11:10:46;1.17;;;0.90;;
52574;SDS011;38468;48.114;-1.684;2024-01-30T11:12:47;1.20;;;0.90;;
52574;SDS011;38468;48.114;-1.684;2024-01-30T11:15:00;2.67;;;0.90;;
52574;SDS011;38468;48.114;-1.684;2024-01-30T11:17:04;1.58;;;1.00;;
52574;SDS011;38468;48.114;-1.684;2024-01-30T11:19:05;1.30;;;1.23;;
52574;SDS011;38468;48.114;-1.684;2024-01-30T11:21:12;2.08;;;1.27;;
52574;SDS011;38468;48.114;-1.684;2024-01-30T11:25:15;2.17;;;1.00;;
52574;SDS011;38468;48.114;-1.684;2024-01-30T11:27:16;1.77;;;0.93;;
52574;SDS011;38468;48.114;-1.684;2024-01-30T11:29:17;2.30;;;0.55;;
52574;SDS011;38468;48.114;-1.684;2024-01-30T11:31:18;1.67;;;0.70;;
52574;SDS011;38468;48.114;-1.684;2024-01-30T11:33:27;2.70;;;0.80;;
52574;SDS011;38468;48.114;-1.684;2024-01-30T11:35:40;4.68;;;1.10;;
52574;SDS011;38468;48.114;-1.684;2024-01-30T11:37:42;1.60;;;1.00;;
52574;SDS011;38468;48.114;-1.684;2024-01-30T11:39:45;2.55;;;0.90;;
52574;SDS011;38468;48.114;-1.684;2024-01-30T11:41:47;4.07;;;1.00;;
52574;SDS011;38468;48.114;-1.684;2024-01-30T11:43:51;1.35;;;0.77;;
52574;SDS011;38468;48.114;-1.684;2024-01-30T11:45:55;1.40;;;1.08;;
52574;SDS011;38468;48.114;-1.684;2024-01-30T11:47:55;3.63;;;0.73;;
52574;SDS011;38468;48.114;-1.684;2024-01-30T11:49:57;2.63;;;1.02;;
52574;SDS011;38468;48.114;-1.684;2024-01-30T11:51:57;1.65;;;0.88;;
52574;SDS011;38468;48.114;-1.684;2024-01-30T11:53:58;2.30;;;1.17;;
52574;SDS011;38468;48.114;-1.684;2024-01-30T11:55:59;4.78;;;1.33;;
52574;SDS011;38468;48.114;-1.684;2024-01-30T11:57:59;0.88;;;0.80;;
52574;SDS011;38468;48.114;-1.684;2024-01-30T12:00:00;4.13;;;0.65;;
52574;SDS011;38468;48.114;-1.684;2024-01-30T12:02:03;1.25;;;0.93;;
52574;SDS011;38468;48.114;-1.684;2024-01-30T12:04:04;1.38;;;1.00;;
52574;SDS011;38468;48.114;-1.684;2024-01-30T12:06:09;0.68;;;0.68;;
52574;SDS011;38468;48.114;-1.684;2024-01-30T12:08:14;1.85;;;0.88;;
52574;SDS011;38468;48.114;-1.684;2024-01-30T12:10:17;2.15;;;0.80;;
52574;SDS011;38468;48.114;-1.684;2024-01-30T12:12:17;0.93;;;0.93;;
52574;SDS011;38468;48.114;-1.684;2024-01-30T12:14:18;1.33;;;0.80;;
52574;SDS011;38468;48.114;-1.684;2024-01-30T12:16:20;1.55;;;1.00;;
52574;SDS011;38468;48.114;-1.684;2024-01-30T12:18:21;1.35;;;1.15;;
52574;SDS011;38468;48.114;-1.684;2024-01-30T12:20:21;3.78;;;0.90;;
52574;SDS011;38468;48.114;-1.684;2024-01-30T12:22:23;3.63;;;1.20;;
52574;SDS011;38468;48.114;-1.684;2024-01-30T12:24:24;1.38;;;0.60;;
52574;SDS011;38468;48.114;-1.684;2024-01-30T12:26:25;1.88;;;0.70;;